createdAt,value
2017-08-24T00:00:45.849Z,980.2
2017-08-24T00:01:47.953Z,980.2
2017-08-24T00:02:50.077Z,980.2
2017-08-24T00:03:52.446Z,980.3
2017-08-24T00:04:55.220Z,980.3
2017-08-24T00:05:57.307Z,980.3
2017-08-24T00:06:59.447Z,980.3
2017-08-24T00:08:01.518Z,980.3
2017-08-24T00:09:03.940Z,980.3
2017-08-24T00:10:06.080Z,980.3
2017-08-24T00:11:08.320Z,980.3
2017-08-24T00:12:10.499Z,980.3
2017-08-24T00:13:12.616Z,980.3
2017-08-24T00:14:14.985Z,980.3
2017-08-24T00:15:17.160Z,980.2
2017-08-24T00:16:19.418Z,980.2
2017-08-24T00:17:21.611Z,980.3
2017-08-24T00:18:23.782Z,980.2
2017-08-24T00:19:26.343Z,980.2
2017-08-24T00:20:28.432Z,980.2
2017-08-24T00:21:30.598Z,980.1
2017-08-24T00:22:32.749Z,980.2
2017-08-24T00:23:34.874Z,980.2
2017-08-24T00:24:37.238Z,980.2
2017-08-24T00:25:39.407Z,980.1
2017-08-24T00:26:41.454Z,980.2
2017-08-24T00:27:43.642Z,980.2
2017-08-24T00:28:45.757Z,980.1
2017-08-24T00:29:48.219Z,980.2
2017-08-24T00:30:50.423Z,980.1
2017-08-24T00:31:52.568Z,980.1
2017-08-24T00:32:54.696Z,980.1
2017-08-24T00:33:56.727Z,980.1
2017-08-24T00:34:59.106Z,980.1
2017-08-24T00:36:01.245Z,980.1
2017-08-24T00:37:03.369Z,980.1
2017-08-24T00:38:05.440Z,980.1
2017-08-24T00:39:07.475Z,980.1
2017-08-24T00:40:09.901Z,980
2017-08-24T00:41:13.111Z,980
2017-08-24T00:42:15.259Z,980
2017-08-24T00:43:17.396Z,980.1
2017-08-24T00:44:19.496Z,980.1
2017-08-24T00:45:21.982Z,980.1
2017-08-24T00:46:24.144Z,980.1
2017-08-24T00:47:26.401Z,980.1
2017-08-24T00:48:28.505Z,980.1
2017-08-24T00:49:30.633Z,980
2017-08-24T00:50:33.137Z,980.1
2017-08-24T00:51:35.249Z,980.1
2017-08-24T00:52:37.386Z,980.1
2017-08-24T00:53:39.550Z,980.1
2017-08-24T00:54:42.222Z,980
2017-08-24T00:55:44.685Z,980
2017-08-24T00:56:46.829Z,980
2017-08-24T00:57:48.996Z,980
2017-08-24T00:58:51.121Z,980
2017-08-24T00:59:53.229Z,979.9
2017-08-24T01:00:55.774Z,980
2017-08-24T01:01:57.895Z,980
2017-08-24T01:03:00.020Z,979.9
2017-08-24T01:04:02.376Z,979.9
2017-08-24T01:05:04.449Z,980
2017-08-24T01:06:06.804Z,979.9
2017-08-24T01:07:09.028Z,979.9
2017-08-24T01:08:11.139Z,979.9
2017-08-24T01:09:13.276Z,979.9
2017-08-24T01:10:15.441Z,979.9
2017-08-24T01:11:17.866Z,979.9
2017-08-24T01:12:19.918Z,979.9
2017-08-24T01:13:21.953Z,979.8
2017-08-24T01:14:24.031Z,979.9
2017-08-24T01:15:26.132Z,979.9
2017-08-24T01:16:28.615Z,979.8
2017-08-24T01:17:30.773Z,979.9
2017-08-24T01:18:32.884Z,979.9
2017-08-24T01:19:34.938Z,979.8
2017-08-24T01:20:37.044Z,979.8
2017-08-24T01:21:39.412Z,979.8
2017-08-24T01:22:41.509Z,979.8
2017-08-24T01:23:43.686Z,979.8
2017-08-24T01:24:45.871Z,979.8
2017-08-24T01:25:48.038Z,979.8
2017-08-24T01:26:50.480Z,979.8
2017-08-24T01:27:52.624Z,979.8
2017-08-24T01:28:54.844Z,979.8
2017-08-24T01:29:56.955Z,979.8
2017-08-24T01:30:59.094Z,979.8
2017-08-24T01:32:01.754Z,979.8
2017-08-24T01:33:03.927Z,979.8
2017-08-24T01:34:05.941Z,979.8
2017-08-24T01:35:07.987Z,979.8
2017-08-24T01:36:10.783Z,979.7
2017-08-24T01:37:13.264Z,979.7
2017-08-24T01:38:15.421Z,979.7
2017-08-24T01:39:17.602Z,979.7
2017-08-24T01:40:19.717Z,979.7
2017-08-24T01:41:21.871Z,979.7
2017-08-24T01:42:24.200Z,979.7
2017-08-24T01:43:26.341Z,979.7
2017-08-24T01:44:28.428Z,979.7
2017-08-24T01:45:30.576Z,979.6
2017-08-24T01:46:32.657Z,979.7
2017-08-24T01:47:35.041Z,979.6
2017-08-24T01:48:37.158Z,979.6
2017-08-24T01:49:39.252Z,979.6
2017-08-24T01:50:41.404Z,979.7
2017-08-24T01:51:43.528Z,979.6
2017-08-24T01:52:45.967Z,979.6
2017-08-24T01:53:48.104Z,979.6
2017-08-24T01:54:50.196Z,979.6
2017-08-24T01:55:52.227Z,979.6
2017-08-24T01:56:54.322Z,979.6
2017-08-24T01:57:56.676Z,979.6
2017-08-24T01:58:58.798Z,979.5
2017-08-24T02:00:00.854Z,979.6
2017-08-24T02:01:02.927Z,979.6
2017-08-24T02:02:05.306Z,979.6
2017-08-24T02:03:07.756Z,979.6
2017-08-24T02:04:10.064Z,979.6
2017-08-24T02:05:12.181Z,979.6
2017-08-24T02:06:14.289Z,979.6
2017-08-24T02:07:16.424Z,979.6
2017-08-24T02:08:18.898Z,979.6
2017-08-24T02:09:21.056Z,979.6
2017-08-24T02:10:23.135Z,979.6
2017-08-24T02:11:25.246Z,979.6
2017-08-24T02:12:27.352Z,979.6
2017-08-24T02:13:29.835Z,979.5
2017-08-24T02:14:31.915Z,979.6
2017-08-24T02:15:33.990Z,979.5
2017-08-24T02:16:36.066Z,979.6
2017-08-24T02:17:38.282Z,979.6
2017-08-24T02:18:40.698Z,979.5
2017-08-24T02:19:42.840Z,979.5
2017-08-24T02:20:45.015Z,979.6
2017-08-24T02:21:47.173Z,979.5
2017-08-24T02:22:49.327Z,979.5
2017-08-24T02:23:51.783Z,979.5
2017-08-24T02:24:53.871Z,979.6
2017-08-24T02:25:55.941Z,979.5
2017-08-24T02:26:58.079Z,979.5
2017-08-24T02:28:00.173Z,979.6
2017-08-24T02:29:02.754Z,979.6
2017-08-24T02:30:04.866Z,979.6
2017-08-24T02:31:06.981Z,979.6
2017-08-24T02:32:09.061Z,979.5
2017-08-24T02:33:11.296Z,979.6
2017-08-24T02:34:13.785Z,979.6
2017-08-24T02:35:15.894Z,979.6
2017-08-24T02:36:18.016Z,979.5
2017-08-24T02:37:20.118Z,979.5
2017-08-24T02:38:22.245Z,979.5
2017-08-24T02:39:24.663Z,979.4
2017-08-24T02:40:26.759Z,979.4
2017-08-24T02:41:28.935Z,979.3
2017-08-24T02:42:31.089Z,979.3
2017-08-24T02:43:33.245Z,979.3
2017-08-24T02:44:35.582Z,979.4
2017-08-24T02:45:37.706Z,979.3
2017-08-24T02:46:39.820Z,979.3
2017-08-24T02:47:41.927Z,979.3
2017-08-24T02:48:44.036Z,979.3
2017-08-24T02:49:46.584Z,979.3
2017-08-24T02:50:48.697Z,979.3
2017-08-24T02:51:50.792Z,979.3
2017-08-24T02:52:52.943Z,979.3
2017-08-24T02:53:55.067Z,979.3
2017-08-24T02:54:57.581Z,979.3
2017-08-24T02:55:59.676Z,979.3
2017-08-24T02:57:01.775Z,979.2
2017-08-24T02:58:04.520Z,979.2
2017-08-24T02:59:06.597Z,979.2
2017-08-24T03:00:09.011Z,979.2
2017-08-24T03:01:11.155Z,979.2
2017-08-24T03:02:13.182Z,979.2
2017-08-24T03:03:15.253Z,979.2
2017-08-24T03:04:17.476Z,979.2
2017-08-24T03:05:19.931Z,979.2
2017-08-24T03:06:22.044Z,979.2
2017-08-24T03:07:24.133Z,979.2
2017-08-24T03:08:26.253Z,979.2
2017-08-24T03:09:28.388Z,979.2
2017-08-24T03:10:30.826Z,979.2
2017-08-24T03:11:32.947Z,979.2
2017-08-24T03:12:35.377Z,979.1
2017-08-24T03:13:37.523Z,979.2
2017-08-24T03:14:39.614Z,979.2
2017-08-24T03:15:42.087Z,979.2
2017-08-24T03:16:44.205Z,979.2
2017-08-24T03:17:46.326Z,979.2
2017-08-24T03:18:48.403Z,979.2
2017-08-24T03:19:50.522Z,979.2
2017-08-24T03:20:53.044Z,979.2
2017-08-24T03:21:55.209Z,979.1
2017-08-24T03:22:57.289Z,979.1
2017-08-24T03:23:59.921Z,979.1
2017-08-24T03:25:01.994Z,979.1
2017-08-24T03:26:04.411Z,979.1
2017-08-24T03:27:06.576Z,979.1
2017-08-24T03:28:08.645Z,979.1
2017-08-24T03:29:10.823Z,979.1
2017-08-24T03:30:12.952Z,979.1
2017-08-24T03:31:15.407Z,979.1
2017-08-24T03:32:17.529Z,979.1
2017-08-24T03:33:19.586Z,979.1
2017-08-24T03:34:21.731Z,979.1
2017-08-24T03:35:23.801Z,979.2
2017-08-24T03:36:26.197Z,979.1
2017-08-24T03:37:28.277Z,979.1
2017-08-24T03:38:30.498Z,979.1
2017-08-24T03:39:32.693Z,979.1
2017-08-24T03:40:34.736Z,979.1
2017-08-24T03:41:37.055Z,979
2017-08-24T03:42:39.077Z,979.1
2017-08-24T03:43:41.144Z,979.1
2017-08-24T03:44:43.171Z,979
2017-08-24T03:45:45.242Z,979
2017-08-24T03:46:47.737Z,979
2017-08-24T03:47:49.879Z,979
2017-08-24T03:48:51.877Z,979.1
2017-08-24T03:49:53.925Z,979.1
2017-08-24T03:50:56.061Z,979.1
2017-08-24T03:51:58.513Z,979.1
2017-08-24T03:53:00.641Z,979.1
2017-08-24T03:54:02.763Z,979.1
2017-08-24T03:55:04.925Z,979.1
2017-08-24T03:56:06.976Z,979.1
2017-08-24T03:57:09.411Z,979.1
2017-08-24T03:58:11.447Z,979.1
2017-08-24T03:59:13.568Z,979.1
2017-08-24T04:00:16.239Z,979
2017-08-24T04:01:18.369Z,979.1
2017-08-24T04:02:21.437Z,979.1
2017-08-24T04:03:23.616Z,979.1
2017-08-24T04:04:26.413Z,979.1
2017-08-24T04:05:28.584Z,979.1
2017-08-24T04:06:30.788Z,979.1
2017-08-24T04:07:33.198Z,979
2017-08-24T04:08:35.343Z,979.1
2017-08-24T04:09:37.437Z,979
2017-08-24T04:10:39.560Z,979
2017-08-24T04:11:41.686Z,979
2017-08-24T04:12:44.106Z,979
2017-08-24T04:13:46.274Z,979
2017-08-24T04:14:48.357Z,979
2017-08-24T04:15:51.465Z,979
2017-08-24T04:16:53.534Z,979
2017-08-24T04:17:55.907Z,979
2017-08-24T04:18:58.020Z,979
2017-08-24T04:20:00.153Z,979.1
2017-08-24T04:21:02.273Z,979
2017-08-24T04:22:04.380Z,979.1
2017-08-24T04:23:06.864Z,979.1
2017-08-24T04:24:08.954Z,979.1
2017-08-24T04:25:11.123Z,979.1
2017-08-24T04:26:13.245Z,979.2
2017-08-24T04:27:15.280Z,979.1
2017-08-24T04:28:17.719Z,979.2
2017-08-24T04:29:19.870Z,979.2
2017-08-24T04:30:22.021Z,979.2
2017-08-24T04:31:24.158Z,979.3
2017-08-24T04:32:26.327Z,979.2
2017-08-24T04:33:28.676Z,979.3
2017-08-24T04:34:30.714Z,979.3
2017-08-24T04:35:32.728Z,979.2
2017-08-24T04:36:34.985Z,979.3
2017-08-24T04:37:37.163Z,979.2
2017-08-24T04:38:39.519Z,979.3
2017-08-24T04:39:41.639Z,979.3
2017-08-24T04:40:44.093Z,979.2
2017-08-24T04:41:46.204Z,979.2
2017-08-24T04:42:48.294Z,979.3
2017-08-24T04:43:50.658Z,979.2
2017-08-24T04:44:52.801Z,979.3
2017-08-24T04:45:54.932Z,979.2
2017-08-24T04:46:57.074Z,979.3
2017-08-24T04:47:59.201Z,979.3
2017-08-24T04:49:01.757Z,979.3
2017-08-24T04:50:03.878Z,979.3
2017-08-24T04:51:06.003Z,979.3
2017-08-24T04:52:08.094Z,979.3
2017-08-24T04:53:10.172Z,979.3
2017-08-24T04:54:12.636Z,979.3
2017-08-24T04:55:15.099Z,979.4
2017-08-24T04:56:17.185Z,979.3
2017-08-24T04:57:19.436Z,979.4
2017-08-24T04:58:21.584Z,979.3
2017-08-24T04:59:24.051Z,979.3
2017-08-24T05:00:26.903Z,979.3
2017-08-24T05:01:28.983Z,979.3
2017-08-24T05:02:31.077Z,979.3
2017-08-24T05:03:33.159Z,979.3
2017-08-24T05:04:35.574Z,979.4
2017-08-24T05:05:37.667Z,979.4
2017-08-24T05:06:39.809Z,979.3
2017-08-24T05:07:41.920Z,979.3
2017-08-24T05:08:44.077Z,979.4
2017-08-24T05:09:46.618Z,979.4
2017-08-24T05:10:48.756Z,979.4
2017-08-24T05:11:50.819Z,979.4
2017-08-24T05:12:52.934Z,979.4
2017-08-24T05:13:54.978Z,979.4
2017-08-24T05:14:57.416Z,979.4
2017-08-24T05:15:59.577Z,979.5
2017-08-24T05:17:01.712Z,979.5
2017-08-24T05:18:03.780Z,979.5
2017-08-24T05:19:05.865Z,979.5
2017-08-24T05:20:08.284Z,979.5
2017-08-24T05:21:10.451Z,979.5
2017-08-24T05:22:12.555Z,979.5
2017-08-24T05:23:14.648Z,979.5
2017-08-24T05:24:16.767Z,979.5
2017-08-24T05:25:20.076Z,979.5
2017-08-24T05:26:22.343Z,979.5
2017-08-24T05:27:24.439Z,979.4
2017-08-24T05:28:26.893Z,979.5
2017-08-24T05:29:28.928Z,979.4
2017-08-24T05:30:31.350Z,979.4
2017-08-24T05:31:33.445Z,979.4
2017-08-24T05:32:35.498Z,979.4
2017-08-24T05:33:37.639Z,979.4
2017-08-24T05:34:39.719Z,979.4
2017-08-24T05:35:42.148Z,979.4
2017-08-24T05:36:44.228Z,979.4
2017-08-24T05:37:46.322Z,979.5
2017-08-24T05:38:48.392Z,979.5
2017-08-24T05:39:50.506Z,979.5
2017-08-24T05:40:52.930Z,979.5
2017-08-24T05:41:54.995Z,979.5
2017-08-24T05:42:57.017Z,979.5
2017-08-24T05:43:59.091Z,979.5
2017-08-24T05:45:01.189Z,979.6
2017-08-24T05:46:03.659Z,979.5
2017-08-24T05:47:05.783Z,979.5
2017-08-24T05:48:07.883Z,979.6
2017-08-24T05:49:10.023Z,979.6
2017-08-24T05:50:12.116Z,979.6
2017-08-24T05:51:14.541Z,979.6
2017-08-24T05:52:16.683Z,979.7
2017-08-24T05:53:18.722Z,979.6
2017-08-24T05:54:20.872Z,979.7
2017-08-24T05:55:22.985Z,979.7
2017-08-24T05:56:26.363Z,979.7
2017-08-24T05:57:28.476Z,979.8
2017-08-24T05:58:30.531Z,979.8
2017-08-24T05:59:32.591Z,979.8
2017-08-24T06:00:34.728Z,979.8
2017-08-24T06:01:37.233Z,979.8
2017-08-24T06:02:39.307Z,979.9
2017-08-24T06:03:42.015Z,979.9
2017-08-24T06:04:44.062Z,979.9
2017-08-24T06:05:46.114Z,979.9
2017-08-24T06:06:48.660Z,979.9
2017-08-24T06:07:50.753Z,979.9
2017-08-24T06:08:52.835Z,980
2017-08-24T06:09:54.990Z,979.9
2017-08-24T06:10:57.036Z,979.9
2017-08-24T06:11:59.462Z,979.9
2017-08-24T06:13:01.580Z,979.9
2017-08-24T06:14:03.647Z,979.9
2017-08-24T06:15:05.716Z,979.8
2017-08-24T06:16:07.800Z,979.8
2017-08-24T06:17:10.225Z,979.8
2017-08-24T06:18:12.263Z,979.8
2017-08-24T06:19:14.387Z,979.8
2017-08-24T06:20:16.473Z,979.8
2017-08-24T06:21:18.540Z,979.9
2017-08-24T06:22:20.958Z,979.9
2017-08-24T06:23:23.087Z,979.9
2017-08-24T06:24:25.808Z,979.9
2017-08-24T06:25:27.899Z,979.9
2017-08-24T06:26:30.002Z,979.9
2017-08-24T06:27:32.442Z,979.9
2017-08-24T06:28:34.569Z,979.9
2017-08-24T06:29:36.684Z,979.9
2017-08-24T06:30:38.806Z,980
2017-08-24T06:31:40.838Z,980
2017-08-24T06:32:43.284Z,979.9
2017-08-24T06:33:45.389Z,979.9
2017-08-24T06:34:47.470Z,979.9
2017-08-24T06:35:49.586Z,979.9
2017-08-24T06:36:51.730Z,979.9
2017-08-24T06:37:54.317Z,979.9
2017-08-24T06:38:56.472Z,980
2017-08-24T06:39:58.598Z,980
2017-08-24T06:41:00.696Z,980
2017-08-24T06:42:02.789Z,980
2017-08-24T06:43:05.205Z,980
2017-08-24T06:44:07.252Z,980
2017-08-24T06:45:09.353Z,979.9
2017-08-24T06:46:11.434Z,979.9
2017-08-24T06:47:13.572Z,980
2017-08-24T06:48:15.998Z,980
2017-08-24T06:49:18.095Z,980
2017-08-24T06:50:20.246Z,980
2017-08-24T06:51:22.315Z,980.1
2017-08-24T06:52:24.445Z,980.1
2017-08-24T06:53:26.972Z,980
2017-08-24T06:54:29.065Z,980.1
2017-08-24T06:55:31.225Z,980.1
2017-08-24T06:56:33.371Z,980.1
2017-08-24T06:57:35.482Z,980.1
2017-08-24T06:58:37.870Z,980.1
2017-08-24T06:59:39.943Z,980.2
2017-08-24T07:00:42.019Z,980.1
2017-08-24T07:01:44.159Z,980.2
2017-08-24T07:02:46.237Z,980.2
2017-08-24T07:03:48.643Z,980.2
2017-08-24T07:04:50.771Z,980.1
2017-08-24T07:05:52.878Z,980.2
2017-08-24T07:06:54.991Z,980.2
2017-08-24T07:07:57.059Z,980.2
2017-08-24T07:08:59.498Z,980.2
2017-08-24T07:10:01.739Z,980.2
2017-08-24T07:11:03.849Z,980.2
2017-08-24T07:12:05.891Z,980.2
2017-08-24T07:13:07.991Z,980.2
2017-08-24T07:14:10.425Z,980.2
2017-08-24T07:15:12.522Z,980.2
2017-08-24T07:16:14.691Z,980.2
2017-08-24T07:17:16.824Z,980.3
2017-08-24T07:18:18.863Z,980.2
2017-08-24T07:19:21.221Z,980.2
2017-08-24T07:20:23.366Z,980.2
2017-08-24T07:21:25.464Z,980.2
2017-08-24T07:22:27.623Z,980.2
2017-08-24T07:23:29.709Z,980.2
2017-08-24T07:24:32.791Z,980.3
2017-08-24T07:25:34.850Z,980.3
2017-08-24T07:26:36.934Z,980.2
2017-08-24T07:27:38.959Z,980.3
2017-08-24T07:28:41.000Z,980.3
2017-08-24T07:29:44.098Z,980.3
2017-08-24T07:30:46.200Z,980.3
2017-08-24T07:31:48.802Z,980.4
2017-08-24T07:32:50.935Z,980.3
2017-08-24T07:33:53.124Z,980.4
2017-08-24T07:34:56.278Z,980.3
2017-08-24T07:35:58.394Z,980.4
2017-08-24T07:37:00.551Z,980.4
2017-08-24T07:38:02.650Z,980.4
2017-08-24T07:39:04.745Z,980.4
2017-08-24T07:40:07.106Z,980.4
2017-08-24T07:41:09.228Z,980.4
2017-08-24T07:42:11.244Z,980.5
2017-08-24T07:43:13.747Z,980.5
2017-08-24T07:44:15.901Z,980.5
2017-08-24T07:45:18.372Z,980.5
2017-08-24T07:46:20.433Z,980.5
2017-08-24T07:47:22.531Z,980.5
2017-08-24T07:48:24.619Z,980.5
2017-08-24T07:49:26.690Z,980.5
2017-08-24T07:50:29.196Z,980.6
2017-08-24T07:51:31.994Z,980.6
2017-08-24T07:52:34.123Z,980.6
2017-08-24T07:53:36.164Z,980.6
2017-08-24T07:54:38.252Z,980.6
2017-08-24T07:55:40.712Z,980.6
2017-08-24T07:56:42.784Z,980.6
2017-08-24T07:57:44.873Z,980.6
2017-08-24T07:58:47.630Z,980.7
2017-08-24T07:59:49.774Z,980.7
2017-08-24T08:00:52.197Z,980.7
2017-08-24T08:01:54.393Z,980.7
2017-08-24T08:02:56.503Z,980.7
2017-08-24T08:03:58.622Z,980.7
2017-08-24T08:05:00.773Z,980.7
2017-08-24T08:06:03.187Z,980.7
2017-08-24T08:07:05.287Z,980.7
2017-08-24T08:08:07.419Z,980.7
2017-08-24T08:09:09.536Z,980.7
2017-08-24T08:10:11.588Z,980.7
2017-08-24T08:11:14.137Z,980.8
2017-08-24T08:12:16.312Z,980.8
2017-08-24T08:13:18.456Z,980.8
2017-08-24T08:14:20.659Z,980.8
2017-08-24T08:15:22.775Z,980.8
2017-08-24T08:16:25.109Z,980.8
2017-08-24T08:17:27.251Z,980.9
2017-08-24T08:18:29.360Z,980.9
2017-08-24T08:19:31.560Z,980.9
2017-08-24T08:20:33.955Z,980.9
2017-08-24T08:21:36.382Z,980.9
2017-08-24T08:22:38.599Z,980.9
2017-08-24T08:23:40.765Z,980.9
2017-08-24T08:24:42.899Z,980.9
2017-08-24T08:25:44.988Z,980.9
2017-08-24T08:26:47.368Z,980.9
2017-08-24T08:27:49.494Z,980.9
2017-08-24T08:28:51.647Z,980.9
2017-08-24T08:29:53.718Z,980.9
2017-08-24T08:30:55.776Z,980.9
2017-08-24T08:31:58.266Z,981
2017-08-24T08:33:00.628Z,981
2017-08-24T08:34:02.717Z,981
2017-08-24T08:35:04.977Z,980.9
2017-08-24T08:36:07.098Z,981
2017-08-24T08:37:09.587Z,980.9
2017-08-24T08:38:11.643Z,981
2017-08-24T08:39:13.773Z,981
2017-08-24T08:40:15.940Z,980.9
2017-08-24T08:41:17.967Z,980.9
2017-08-24T08:42:20.448Z,980.9
2017-08-24T08:43:22.507Z,981
2017-08-24T08:44:24.596Z,981
2017-08-24T08:45:26.635Z,981
2017-08-24T08:46:28.725Z,980.9
2017-08-24T08:47:31.130Z,981
2017-08-24T08:48:33.227Z,981
2017-08-24T08:49:35.336Z,981
2017-08-24T08:50:37.486Z,981
2017-08-24T08:51:39.594Z,981.1
2017-08-24T08:52:42.061Z,981
2017-08-24T08:53:44.140Z,981
2017-08-24T08:54:46.253Z,981
2017-08-24T08:55:48.423Z,981.1
2017-08-24T08:56:50.611Z,981.1
2017-08-24T08:57:53.135Z,981.1
2017-08-24T08:58:55.272Z,981.1
2017-08-24T08:59:57.390Z,981.1
2017-08-24T09:00:59.449Z,981.1
2017-08-24T09:02:01.661Z,981.1
2017-08-24T09:03:04.040Z,981.2
2017-08-24T09:04:06.115Z,981.1
2017-08-24T09:05:08.173Z,981.2
2017-08-24T09:06:10.229Z,981.2
2017-08-24T09:07:12.355Z,981.2
2017-08-24T09:08:14.746Z,981.1
2017-08-24T09:09:16.933Z,981.2
2017-08-24T09:10:19.135Z,981.1
2017-08-24T09:11:21.281Z,981.2
2017-08-24T09:12:23.323Z,981.2
2017-08-24T09:13:25.948Z,981.2
2017-08-24T09:14:28.079Z,981.3
2017-08-24T09:15:30.249Z,981.3
2017-08-24T09:16:32.323Z,981.3
2017-08-24T09:17:34.397Z,981.3
2017-08-24T09:18:36.771Z,981.3
2017-08-24T09:19:38.891Z,981.4
2017-08-24T09:20:41.028Z,981.4
2017-08-24T09:21:43.097Z,981.5
2017-08-24T09:22:45.137Z,981.4
2017-08-24T09:23:47.594Z,981.5
2017-08-24T09:24:49.634Z,981.4
2017-08-24T09:25:51.709Z,981.5
2017-08-24T09:26:53.760Z,981.5
2017-08-24T09:27:55.845Z,981.6
2017-08-24T09:28:58.233Z,981.5
2017-08-24T09:30:00.551Z,981.5
2017-08-24T09:31:02.612Z,981.4
2017-08-24T09:32:04.732Z,981.4
2017-08-24T09:33:06.871Z,981.4
2017-08-24T09:34:09.342Z,981.4
2017-08-24T09:35:11.943Z,981.4
2017-08-24T09:36:14.043Z,981.3
2017-08-24T09:37:16.809Z,981.3
2017-08-24T09:38:19.465Z,981.3
2017-08-24T09:39:21.965Z,981.3
2017-08-24T09:40:24.101Z,981.3
2017-08-24T09:41:26.254Z,981.2
2017-08-24T09:42:28.364Z,981.2
2017-08-24T09:43:30.559Z,981.2
2017-08-24T09:44:32.689Z,981.3
2017-08-24T09:45:34.730Z,981.2
2017-08-24T09:46:36.873Z,981.2
2017-08-24T09:47:39.016Z,981.2
2017-08-24T09:48:41.139Z,981.1
2017-08-24T09:49:43.578Z,981.1
2017-08-24T09:50:45.692Z,981.1
2017-08-24T09:51:47.887Z,981.1
2017-08-24T09:52:50.012Z,981.1
2017-08-24T09:53:52.238Z,981
2017-08-24T09:54:54.687Z,981
2017-08-24T09:55:56.842Z,981
2017-08-24T09:56:58.955Z,981
2017-08-24T09:58:09.248Z,981
2017-08-24T09:59:22.090Z,981
2017-08-24T10:00:24.637Z,981
2017-08-24T10:01:26.752Z,981
2017-08-24T10:02:28.816Z,981
2017-08-24T10:03:30.876Z,981.1
2017-08-24T10:04:33.047Z,981
2017-08-24T10:05:35.423Z,981
2017-08-24T10:06:38.163Z,981
2017-08-24T10:07:40.281Z,981
2017-08-24T10:08:42.346Z,981.1
2017-08-24T10:09:44.488Z,981.1
2017-08-24T10:10:46.843Z,981.1
2017-08-24T10:11:48.948Z,981
2017-08-24T10:12:51.019Z,981.1
2017-08-24T10:13:53.059Z,981.1
2017-08-24T10:14:55.166Z,981
2017-08-24T10:15:57.621Z,981.1
2017-08-24T10:16:59.702Z,981
2017-08-24T10:18:01.748Z,980.9
2017-08-24T10:19:03.875Z,981
2017-08-24T10:20:06.452Z,980.9
2017-08-24T10:21:08.859Z,980.9
2017-08-24T10:22:11.003Z,981
2017-08-24T10:23:13.104Z,981
2017-08-24T10:24:15.193Z,980.9
2017-08-24T10:25:17.268Z,981
2017-08-24T10:26:19.695Z,981
2017-08-24T10:27:23.196Z,981
2017-08-24T10:28:25.694Z,981
2017-08-24T10:29:28.233Z,981
2017-08-24T10:30:30.857Z,981
2017-08-24T10:31:33.698Z,981
2017-08-24T10:32:35.904Z,981
2017-08-24T10:33:37.992Z,981
2017-08-24T10:34:40.082Z,981
2017-08-24T10:35:42.155Z,981
2017-08-24T10:36:45.215Z,981
2017-08-24T10:37:47.445Z,981.1
2017-08-24T10:38:49.500Z,981.1
2017-08-24T10:39:51.618Z,981.1
2017-08-24T10:40:54.371Z,981.1
2017-08-24T10:41:56.802Z,981.1
2017-08-24T10:42:58.909Z,981.1
2017-08-24T10:44:01.039Z,981.1
2017-08-24T10:45:03.131Z,981.2
2017-08-24T10:46:05.224Z,981.2
2017-08-24T10:47:07.532Z,981.1
2017-08-24T10:48:09.582Z,981.1
2017-08-24T10:49:11.659Z,981.1
2017-08-24T10:50:13.730Z,981.1
2017-08-24T10:51:15.848Z,981.2
2017-08-24T10:52:18.214Z,981.2
2017-08-24T10:53:20.294Z,981.2
2017-08-24T10:54:22.389Z,981.2
2017-08-24T10:55:24.473Z,981.2
2017-08-24T10:56:26.612Z,981.2
2017-08-24T10:57:31.248Z,981.2
2017-08-24T10:58:33.352Z,981.2
2017-08-24T10:59:35.492Z,981.2
2017-08-24T11:00:37.569Z,981.2
2017-08-24T11:01:39.679Z,981.2
2017-08-24T11:02:42.761Z,981.3
2017-08-24T11:03:44.871Z,981.3
2017-08-24T11:04:47.495Z,981.3
2017-08-24T11:05:49.592Z,981.2
2017-08-24T11:06:52.050Z,981.2
2017-08-24T11:07:54.475Z,981.2
2017-08-24T11:08:56.544Z,981.1
2017-08-24T11:09:58.653Z,981.2
2017-08-24T11:11:00.779Z,981.2
2017-08-24T11:12:02.913Z,981.1
2017-08-24T11:13:05.359Z,981.2
2017-08-24T11:14:07.448Z,981.1
2017-08-24T11:15:09.543Z,981.2
2017-08-24T11:16:11.640Z,981.2
2017-08-24T11:17:13.690Z,981.2
2017-08-24T11:18:16.076Z,981.2
2017-08-24T11:19:18.161Z,981.3
2017-08-24T11:20:20.477Z,981.2
2017-08-24T11:21:22.602Z,981.1
2017-08-24T11:22:24.695Z,981.2
2017-08-24T11:23:27.117Z,981.3
2017-08-24T11:24:29.252Z,981.3
2017-08-24T11:25:32.253Z,981.3
2017-08-24T11:26:34.355Z,981.3
2017-08-24T11:27:36.445Z,981.4
2017-08-24T11:28:38.821Z,981.3
2017-08-24T11:29:41.157Z,981.4
2017-08-24T11:30:43.970Z,981.4
2017-08-24T11:31:46.106Z,981.4
2017-08-24T11:32:48.159Z,981.4
2017-08-24T11:33:50.572Z,981.2
2017-08-24T11:34:52.656Z,981.4
2017-08-24T11:35:54.771Z,981.3
2017-08-24T11:36:56.817Z,981.3
2017-08-24T11:37:58.919Z,981.4
2017-08-24T11:39:01.353Z,981.3
2017-08-24T11:40:03.417Z,981.3
2017-08-24T11:41:05.594Z,981.3
2017-08-24T11:42:07.738Z,981.4
2017-08-24T11:43:09.869Z,981.3
2017-08-24T11:44:12.283Z,981.4
2017-08-24T11:45:14.423Z,981.4
2017-08-24T11:46:16.788Z,981.4
2017-08-24T11:47:19.095Z,981.4
2017-08-24T11:48:21.187Z,981.4
2017-08-24T11:49:24.226Z,981.4
2017-08-24T11:50:26.982Z,981.4
2017-08-24T11:51:29.459Z,981.4
2017-08-24T11:52:31.549Z,981.3
2017-08-24T11:53:33.606Z,981.4
2017-08-24T11:54:36.201Z,981.3
2017-08-24T11:55:38.261Z,981.3
2017-08-24T11:56:40.435Z,981.4
2017-08-24T11:57:42.585Z,981.4
2017-08-24T11:58:44.659Z,981.4
2017-08-24T11:59:47.113Z,981.4
2017-08-24T12:00:49.269Z,981.5
2017-08-24T12:01:51.369Z,981.5
2017-08-24T12:02:53.619Z,981.4
2017-08-24T12:03:55.695Z,981.5
2017-08-24T12:04:58.120Z,981.4
2017-08-24T12:06:00.188Z,981.4
2017-08-24T12:07:02.298Z,981.4
2017-08-24T12:08:04.394Z,981.4
2017-08-24T12:09:06.470Z,981.4
2017-08-24T12:10:08.921Z,981.4
2017-08-24T12:11:11.049Z,981.3
2017-08-24T12:12:13.817Z,981.4
2017-08-24T12:13:15.928Z,981.4
2017-08-24T12:14:18.090Z,981.5
2017-08-24T12:15:20.517Z,981.4
2017-08-24T12:16:22.594Z,981.5
2017-08-24T12:17:24.881Z,981.4
2017-08-24T12:18:26.956Z,981.5
2017-08-24T12:19:28.998Z,981.5
2017-08-24T12:20:31.346Z,981.5
2017-08-24T12:21:33.433Z,981.6
2017-08-24T12:22:35.566Z,981.6
2017-08-24T12:23:37.699Z,981.6
2017-08-24T12:24:39.775Z,981.6
2017-08-24T12:25:42.132Z,981.6
2017-08-24T12:26:44.220Z,981.6
2017-08-24T12:27:46.322Z,981.6
2017-08-24T12:28:48.403Z,981.5
2017-08-24T12:29:50.512Z,981.5
2017-08-24T12:30:52.950Z,981.5
2017-08-24T12:31:55.665Z,981.5
2017-08-24T12:32:57.852Z,981.5
2017-08-24T12:34:01.199Z,981.6
2017-08-24T12:35:03.239Z,981.5
2017-08-24T12:36:05.715Z,981.6
2017-08-24T12:37:08.392Z,981.6
2017-08-24T12:38:10.482Z,981.6
2017-08-24T12:39:13.699Z,981.6
2017-08-24T12:40:15.860Z,981.6
2017-08-24T12:41:18.293Z,981.6
2017-08-24T12:42:20.363Z,981.6
2017-08-24T12:43:22.533Z,981.6
2017-08-24T12:44:24.569Z,981.6
2017-08-24T12:45:26.711Z,981.6
2017-08-24T12:46:29.132Z,981.6
2017-08-24T12:47:31.185Z,981.6
2017-08-24T12:48:33.294Z,981.6
2017-08-24T12:49:35.414Z,981.6
2017-08-24T12:50:37.576Z,981.6
2017-08-24T12:51:40.054Z,981.6
2017-08-24T12:52:42.205Z,981.6
2017-08-24T12:53:44.263Z,981.6
2017-08-24T12:54:46.389Z,981.6
2017-08-24T12:55:48.470Z,981.6
2017-08-24T12:56:50.908Z,981.5
2017-08-24T12:57:53.062Z,981.5
2017-08-24T12:58:55.143Z,981.5
2017-08-24T12:59:57.274Z,981.5
2017-08-24T13:00:59.399Z,981.5
2017-08-24T13:02:01.852Z,981.6
2017-08-24T13:03:03.956Z,981.5
2017-08-24T13:04:06.633Z,981.5
2017-08-24T13:05:08.705Z,981.6
2017-08-24T13:06:10.809Z,981.6
2017-08-24T13:07:13.174Z,981.5
2017-08-24T13:08:15.281Z,981.6
2017-08-24T13:09:17.456Z,981.5
2017-08-24T13:10:20.099Z,981.5
2017-08-24T13:11:22.318Z,981.5
2017-08-24T13:12:24.785Z,981.5
2017-08-24T13:13:26.880Z,981.5
2017-08-24T13:14:29.514Z,981.4
2017-08-24T13:15:31.616Z,981.4
2017-08-24T13:16:33.720Z,981.4
2017-08-24T13:17:36.205Z,981.4
2017-08-24T13:18:39.270Z,981.5
2017-08-24T13:19:43.052Z,981.4
2017-08-24T13:20:45.810Z,981.4
2017-08-24T13:21:48.480Z,981.4
2017-08-24T13:22:51.572Z,981.4
2017-08-24T13:23:53.666Z,981.5
2017-08-24T13:24:55.876Z,981.4
2017-08-24T13:25:58.042Z,981.4
2017-08-24T13:27:00.109Z,981.5
2017-08-24T13:28:02.627Z,981.5